createdAt,value
2022-11-25T00:00:50.135Z,2.10
2022-11-25T00:03:28.057Z,2.10
2022-11-25T00:06:13.330Z,2.10
2022-11-25T00:08:48.516Z,2.10
2022-11-25T00:11:23.366Z,2.10
2022-11-25T00:13:57.396Z,2.10
2022-11-25T00:16:30.616Z,2.10
2022-11-25T00:19:03.575Z,2.10
2022-11-25T00:21:36.727Z,2.10
2022-11-25T00:24:10.106Z,2.10
2022-11-25T00:26:43.518Z,2.10
2022-11-25T00:29:16.335Z,2.20
2022-11-25T00:31:49.397Z,2.20
2022-11-25T00:34:22.134Z,2.20
2022-11-25T00:36:55.202Z,2.20
2022-11-25T00:39:28.913Z,2.20
2022-11-25T00:42:20.922Z,2.20
2022-11-25T00:44:53.655Z,2.10
2022-11-25T00:47:27.137Z,2.10
2022-11-25T00:49:59.897Z,2.10
2022-11-25T00:52:37.070Z,2.10
2022-11-25T00:55:09.898Z,2.00
2022-11-25T00:57:42.953Z,2.00
2022-11-25T01:00:16.058Z,1.90
2022-11-25T01:02:49.451Z,1.90
2022-11-25T01:05:22.322Z,1.80
2022-11-25T01:07:55.601Z,1.70
2022-11-25T01:10:28.577Z,1.70
2022-11-25T01:13:01.789Z,1.80
2022-11-25T01:15:37.546Z,1.80
2022-11-25T01:18:10.778Z,1.80
2022-11-25T01:20:43.575Z,1.80
2022-11-25T01:23:16.690Z,1.80
2022-11-25T01:25:49.376Z,1.90
2022-11-25T01:28:22.380Z,1.90
2022-11-25T01:31:09.732Z,1.90
2022-11-25T01:33:43.665Z,1.90
2022-11-25T01:36:18.366Z,1.90
2022-11-25T01:38:53.983Z,1.90
2022-11-25T01:41:29.180Z,1.90
2022-11-25T01:44:15.020Z,2.00
2022-11-25T01:51:13.934Z,2.00
2022-11-25T01:53:47.221Z,2.00
2022-11-25T01:56:20.643Z,2.00
2022-11-25T01:58:54.760Z,2.00
2022-11-25T02:01:27.682Z,1.90
2022-11-25T02:04:01.336Z,1.80
2022-11-25T02:06:44.575Z,1.80
2022-11-25T02:09:20.287Z,1.80
2022-11-25T02:11:53.413Z,1.80
2022-11-25T02:14:27.372Z,1.80
2022-11-25T02:17:02.572Z,1.80
2022-11-25T02:19:51.883Z,1.80
2022-11-25T02:22:33.516Z,1.80
2022-11-25T02:25:16.288Z,1.80
2022-11-25T02:27:56.569Z,1.70
2022-11-25T02:30:30.185Z,1.70
2022-11-25T02:33:03.484Z,1.70
2022-11-25T02:35:38.170Z,1.70
2022-11-25T02:38:24.980Z,1.70
2022-11-25T02:41:07.916Z,1.70
2022-11-25T02:43:41.512Z,1.70
2022-11-25T02:46:22.495Z,1.70
2022-11-25T02:49:12.731Z,1.60
2022-11-25T02:51:46.004Z,1.70
2022-11-25T02:54:18.802Z,1.70
2022-11-25T02:56:52.386Z,1.70
2022-11-25T02:59:25.173Z,1.80
2022-11-25T03:01:58.463Z,1.80
2022-11-25T03:04:31.159Z,1.70
2022-11-25T03:07:04.324Z,1.70
2022-11-25T03:09:37.160Z,1.80
2022-11-25T03:12:19.416Z,1.70
2022-11-25T03:14:52.206Z,1.70
2022-11-25T03:17:27.812Z,1.70
2022-11-25T03:20:00.543Z,1.70
2022-11-25T03:22:33.728Z,1.70
2022-11-25T03:25:06.968Z,1.70
2022-11-25T03:27:41.136Z,1.80
2022-11-25T03:30:17.860Z,1.80
2022-11-25T03:32:51.681Z,1.80
2022-11-25T03:35:24.577Z,1.80
2022-11-25T03:37:57.602Z,1.80
2022-11-25T03:40:30.273Z,1.80
2022-11-25T03:43:03.928Z,1.80
2022-11-25T03:45:36.681Z,1.80
2022-11-25T03:48:09.830Z,1.80
2022-11-25T03:50:42.996Z,1.80
2022-11-25T03:53:16.064Z,1.80
2022-11-25T03:55:48.867Z,1.80
2022-11-25T03:58:22.082Z,1.80
2022-11-25T04:00:54.883Z,1.80
2022-11-25T04:03:30.081Z,1.90
2022-11-25T04:06:03.889Z,1.90
2022-11-25T04:08:37.368Z,1.80
2022-11-25T04:11:10.192Z,1.90
2022-11-25T04:13:43.416Z,1.90
2022-11-25T04:16:26.386Z,1.90
2022-11-25T04:18:59.489Z,1.90
2022-11-25T04:21:32.232Z,1.90
2022-11-25T04:24:05.592Z,1.90
2022-11-25T04:26:38.296Z,1.80
2022-11-25T04:29:11.752Z,1.80
2022-11-25T04:31:44.893Z,1.80
2022-11-25T04:34:17.922Z,1.80
2022-11-25T04:36:50.644Z,1.80
2022-11-25T04:39:23.706Z,1.80
2022-11-25T04:42:16.370Z,1.80
2022-11-25T04:45:14.069Z,1.80
2022-11-25T04:47:43.542Z,1.80
2022-11-25T04:50:20.185Z,1.80
2022-11-25T04:52:52.897Z,1.80
2022-11-25T04:55:26.014Z,1.80
2022-11-25T04:57:58.742Z,1.70
2022-11-25T05:00:31.895Z,1.70
2022-11-25T05:03:04.919Z,1.70
2022-11-25T05:05:39.443Z,1.70
2022-11-25T05:08:12.092Z,1.70
2022-11-25T05:10:45.230Z,1.80
2022-11-25T05:13:18.004Z,1.80
2022-11-25T05:15:51.247Z,1.80
2022-11-25T05:18:24.012Z,1.80
2022-11-25T05:21:02.403Z,1.80
2022-11-25T05:23:35.183Z,1.80
2022-11-25T05:26:08.264Z,1.80
2022-11-25T05:28:41.112Z,1.80
2022-11-25T05:31:14.467Z,1.80
2022-11-25T05:33:47.645Z,1.80
2022-11-25T05:36:20.887Z,1.80
2022-11-25T05:38:53.655Z,1.70
2022-11-25T05:41:27.021Z,1.80
2022-11-25T05:43:59.944Z,1.80
2022-11-25T05:46:33.271Z,1.80
2022-11-25T05:49:06.076Z,1.80
2022-11-25T05:51:39.313Z,1.80
2022-11-25T05:54:12.258Z,1.80
2022-11-25T05:56:45.408Z,1.80
2022-11-25T05:59:18.485Z,1.80
2022-11-25T06:01:53.918Z,1.80
2022-11-25T06:04:26.655Z,1.70
2022-11-25T06:06:59.805Z,1.80
2022-11-25T06:09:32.480Z,1.80
2022-11-25T06:12:05.624Z,1.70
2022-11-25T06:14:42.019Z,1.70
2022-11-25T06:17:15.264Z,1.70
2022-11-25T06:19:49.753Z,1.80
2022-11-25T06:22:22.680Z,1.80
2022-11-25T06:25:01.936Z,1.80
2022-11-25T06:28:04.571Z,1.80
2022-11-25T06:30:29.351Z,1.70
2022-11-25T06:33:02.288Z,1.80
2022-11-25T06:35:35.583Z,1.80
2022-11-25T06:38:08.731Z,1.80
2022-11-25T06:40:41.499Z,1.80
2022-11-25T06:43:14.373Z,1.80
2022-11-25T06:45:48.663Z,1.60
2022-11-25T06:48:21.752Z,1.80
2022-11-25T06:51:03.321Z,1.60
2022-11-25T06:53:36.892Z,1.80
2022-11-25T06:56:24.458Z,1.90
2022-11-25T06:58:57.408Z,1.90
2022-11-25T07:01:30.947Z,1.90
2022-11-25T07:04:05.780Z,1.90
2022-11-25T07:06:39.097Z,2.00
2022-11-25T07:09:12.003Z,2.00
2022-11-25T07:11:45.032Z,2.00
2022-11-25T07:14:18.292Z,2.00
2022-11-25T07:16:50.965Z,2.00
2022-11-25T07:19:24.029Z,2.10
2022-11-25T07:21:56.762Z,2.10
2022-11-25T07:24:29.875Z,2.20
2022-11-25T07:27:05.892Z,2.20
2022-11-25T07:32:34.023Z,2.30
2022-11-25T07:35:07.623Z,2.30
2022-11-25T07:37:40.468Z,2.30
2022-11-25T07:40:13.648Z,2.40
2022-11-25T07:42:46.467Z,2.40
2022-11-25T07:45:19.557Z,2.40
2022-11-25T07:47:52.161Z,2.50
2022-11-25T07:50:24.994Z,2.60
2022-11-25T07:52:57.685Z,2.60
2022-11-25T07:55:30.650Z,2.60
2022-11-25T07:58:03.497Z,2.60
2022-11-25T08:00:36.603Z,2.70
2022-11-25T08:03:09.312Z,2.70
2022-11-25T08:05:42.442Z,2.80
2022-11-25T08:08:15.402Z,2.80
2022-11-25T08:10:48.370Z,2.80
2022-11-25T08:13:21.022Z,2.90
2022-11-25T08:15:53.914Z,2.90
2022-11-25T08:18:26.769Z,2.90
2022-11-25T08:21:05.875Z,2.90
2022-11-25T08:23:41.013Z,3.00
2022-11-25T08:26:17.422Z,3.00
2022-11-25T08:28:50.805Z,3.00
2022-11-25T08:31:30.372Z,3.00
2022-11-25T08:34:04.796Z,3.10
2022-11-25T08:36:37.719Z,3.10
2022-11-25T08:39:36.172Z,3.10
2022-11-25T08:42:04.992Z,3.10
2022-11-25T08:44:37.890Z,3.10
2022-11-25T08:47:10.813Z,3.10
2022-11-25T08:49:43.800Z,3.10
2022-11-25T08:52:17.088Z,3.20
2022-11-25T08:54:49.820Z,3.20
2022-11-25T08:57:22.748Z,3.30
2022-11-25T08:59:55.302Z,3.30
2022-11-25T09:02:28.088Z,3.30
2022-11-25T09:05:01.280Z,3.30
2022-11-25T09:07:34.125Z,3.30
2022-11-25T09:10:09.234Z,3.30
2022-11-25T09:12:42.205Z,3.30
2022-11-25T09:15:14.763Z,3.30
2022-11-25T09:17:47.656Z,3.40
2022-11-25T09:20:20.159Z,3.40
2022-11-25T09:22:52.963Z,3.50
2022-11-25T09:25:25.494Z,3.50
2022-11-25T09:27:58.519Z,3.50
2022-11-25T09:30:31.950Z,3.60
2022-11-25T09:33:04.804Z,3.60
2022-11-25T09:35:37.330Z,3.70
2022-11-25T09:38:10.866Z,3.70
2022-11-25T09:41:04.201Z,3.60
2022-11-25T09:44:21.016Z,3.80
2022-11-25T09:46:53.825Z,3.80
2022-11-25T09:50:09.356Z,3.80
2022-11-25T09:52:57.646Z,3.80
2022-11-25T09:55:38.067Z,3.90
2022-11-25T09:58:32.329Z,3.90
2022-11-25T10:01:12.669Z,3.90
2022-11-25T10:03:53.081Z,3.80
2022-11-25T10:06:36.319Z,3.80
2022-11-25T10:09:14.851Z,3.80
2022-11-25T10:12:18.020Z,3.70
2022-11-25T10:14:57.185Z,3.60
2022-11-25T10:17:51.063Z,3.60
2022-11-25T10:20:28.222Z,3.60
2022-11-25T10:23:28.357Z,3.60
2022-11-25T10:26:21.607Z,3.60
2022-11-25T10:29:12.905Z,3.60
2022-11-25T10:31:45.545Z,3.50
2022-11-25T10:34:21.369Z,3.50
2022-11-25T10:36:55.721Z,3.50
2022-11-25T10:39:33.843Z,3.50
2022-11-25T10:42:08.385Z,3.50
2022-11-25T10:44:42.247Z,3.50
2022-11-25T10:47:39.359Z,3.50
2022-11-25T10:50:24.886Z,3.50
2022-11-25T10:53:12.976Z,3.50
2022-11-25T10:56:10.286Z,3.50
2022-11-25T10:58:43.153Z,3.60
2022-11-25T11:01:25.599Z,3.60
2022-11-25T11:04:10.728Z,3.70
2022-11-25T11:06:46.396Z,3.80
2022-11-25T11:09:33.042Z,3.70
2022-11-25T11:12:18.093Z,3.90
2022-11-25T11:14:51.964Z,3.90
2022-11-25T11:17:37.132Z,3.90
2022-11-25T11:20:09.923Z,4.00
2022-11-25T11:23:11.830Z,4.00
2022-11-25T11:25:56.686Z,4.00
2022-11-25T11:28:37.026Z,4.00
2022-11-25T11:31:20.329Z,4.00
2022-11-25T11:34:04.417Z,4.00
2022-11-25T11:37:14.504Z,4.00
2022-11-25T11:40:09.085Z,4.00
2022-11-25T11:43:04.656Z,3.90
2022-11-25T11:45:53.501Z,3.90
2022-11-25T11:48:28.655Z,3.90
2022-11-25T11:51:14.424Z,3.80
2022-11-25T11:53:53.346Z,3.90
2022-11-25T11:56:42.677Z,3.80
2022-11-25T11:59:29.981Z,3.80
2022-11-25T12:02:13.558Z,3.80
2022-11-25T12:04:52.279Z,3.80
2022-11-25T12:08:00.175Z,3.80
2022-11-25T12:10:56.425Z,3.70
2022-11-25T12:13:40.576Z,3.80
2022-11-25T12:16:24.408Z,3.80
2022-11-25T12:19:23.945Z,3.80
2022-11-25T12:22:03.391Z,3.80
2022-11-25T12:25:00.482Z,3.80
2022-11-25T12:28:01.696Z,3.70
2022-11-25T12:30:52.592Z,3.70
2022-11-25T12:33:39.210Z,3.70
2022-11-25T12:36:21.319Z,3.70
2022-11-25T12:39:00.361Z,3.70
2022-11-25T12:41:52.167Z,3.70
2022-11-25T12:44:48.571Z,3.70
2022-11-25T12:47:24.465Z,3.60
2022-11-25T12:50:05.424Z,3.60
2022-11-25T12:52:41.533Z,3.50
2022-11-25T12:55:26.592Z,3.50
2022-11-25T12:58:37.189Z,3.40
2022-11-25T13:01:33.608Z,3.50
2022-11-25T13:04:36.143Z,3.50
2022-11-25T13:07:24.131Z,3.40
2022-11-25T13:10:13.360Z,3.40
2022-11-25T13:13:01.644Z,3.30
2022-11-25T13:16:38.608Z,3.30
2022-11-25T13:19:12.854Z,3.40
2022-11-25T13:22:00.441Z,3.30
2022-11-25T13:24:38.441Z,3.30
2022-11-25T13:28:17.669Z,3.20
2022-11-25T13:30:54.049Z,3.10
2022-11-25T13:33:26.922Z,3.00
2022-11-25T13:36:22.935Z,3.00
2022-11-25T13:38:55.806Z,3.00
2022-11-25T13:41:31.397Z,3.00
2022-11-25T13:44:16.241Z,3.00
2022-11-25T13:46:54.670Z,2.90
2022-11-25T13:49:55.185Z,2.90
2022-11-25T13:52:44.980Z,2.90
2022-11-25T13:55:17.780Z,2.90
2022-11-25T13:58:10.791Z,2.90
2022-11-25T14:00:48.695Z,2.80
2022-11-25T14:03:21.393Z,2.90
2022-11-25T14:06:28.301Z,2.90
2022-11-25T14:09:43.824Z,2.80
2022-11-25T14:12:22.555Z,2.90
2022-11-25T14:15:30.755Z,2.90
2022-11-25T14:18:53.165Z,2.90
2022-11-25T14:21:32.865Z,2.90
2022-11-25T14:24:17.986Z,2.80
2022-11-25T14:26:55.221Z,2.80
2022-11-25T14:29:33.488Z,2.80
2022-11-25T14:32:28.428Z,2.80
2022-11-25T14:35:13.483Z,2.80
2022-11-25T14:37:59.433Z,2.80
2022-11-25T14:40:41.272Z,2.80
2022-11-25T14:43:22.156Z,2.70
2022-11-25T14:46:15.661Z,2.80
2022-11-25T14:49:03.287Z,2.80
2022-11-25T14:51:38.899Z,2.70
2022-11-25T14:54:11.483Z,2.70
2022-11-25T14:56:45.198Z,2.80
2022-11-25T14:59:17.883Z,2.80
2022-11-25T15:01:54.151Z,2.80
2022-11-25T15:04:27.043Z,2.80
2022-11-25T15:07:02.876Z,2.70
2022-11-25T15:09:42.784Z,2.70
2022-11-25T15:12:19.359Z,2.70
2022-11-25T15:14:54.984Z,2.70
2022-11-25T15:17:38.845Z,2.60
